Weather at Alicante-Elche Miguel Hernández Airport

Public forecast

Using degrees Celsius for public forecast. Weather courtesy of forecast.io.

Current aviation weather report (METAR) for Alicante-Elche Miguel Hernández Airport

Report is more than 6 hours old.

2022/11/14 15:30 (retrieved 2 years ago)

LEAL 141530Z 18007KT 150V230 CAVOK 21/17 Q1017 NOSIG

Aviation forecast (TAF) for Alicante-Elche Miguel Hernández Airport

Forecast is more than 12 hours old.

2023/02/22 18:29 (retrieved 1 year ago)

TAF LDDU 221725Z 2218/2318 07006KT CAVOK TX14/2312Z TN08/2305Z TAF LEAL 221700Z 2218/2318 07008KT 9999 SCT010 TX22/2312Z TN08/2306Z TEMPO 2218/2312 BKN010 TEMPO 2218/2308 3000 BR BKN005 TEMPO 2220/2302 VRB04KT PROB40 TEMPO 2222/2307 0800 FG VV001 BECMG 2311/2313 18010KT